Grand Rapids, Canada
Current Conditions -  °F | °C
As of 8:00 AM on Thursday 30 Oct 2014 (Local Time) from CYNE Reporting Station
Overcast Overcast  
Wind Chill: 10°   Ceiling: 2600
Heat Index: 23°   Visibility: 9mi
Dew Point: 16°   Wind: 15mph
Humidity: 74%   Direction: 350°N
Pressure: 30.3"   Gusts: 30mph
Location:  53.18°N, 99.28°W
Report Text: CYNE 301300Z AUTO 35013G26KT 9SM OVC026 M05/M09 A3030 RMK SLP278
Loading
Personal Weather Stations






























Interactive Weather Map
Tropical Storm Tracking
New forecast layout! Learn more

10-Day Weather Forecast

Advertisements
Track Severe Weather on mobile